Flight Track Log - Related Links

Times and Time Zones

All times are in EDT time to prevent confusion due to time zone crossing. See the CRQ908 flight status page for this flight to view local times or setup timezone preferences in your user account.

Time Position Orientation Groundspeed Altitude Reporting Facility
EDT Latitude Longitude Course Direction KTS MPH feet Rate Location/Type
Sun 04:24:00 PM 47.7126 -77.2138 132° Southeast  Level Estimated
Sun 04:24:40 PM 47.7833 -77.3333 132° Southeast 240 276 11,900  Level Montreal Center
Sun 04:25:00 PM 47.6637 -77.1331 132° Southeast  Level Estimated
Sun 04:25:57 PM 47.7333 -77.2333 127° Southeast 290 334 13,900  Level Montreal Center
Sun 04:26:00 PM 47.6147 -77.0526 132° Southeast  Level Estimated
Sun 04:26:57 PM 47.6833 -77.1667 138° Southeast 250 288 15,100  Level Montreal Center
Sun 04:27:00 PM 47.5657 -76.9723 132° Southeast  Level Estimated
Sun 04:27:57 PM 47.6333 -77.0833 132° Southeast 250 288 16,700  Level Montreal Center
Sun 04:28:00 PM 47.5167 -76.8920 132° Southeast  Level Estimated
Sun 04:28:57 PM 47.5833 -77.0167 138° Southeast 250 288 17,900  Level Montreal Center
Sun 04:29:00 PM 47.4675 -76.8120 132° Southeast  Level Estimated
Sun 04:29:57 PM 47.5333 -76.9333 132° Southeast 260 299 19,100  Level Montreal Center
Sun 04:30:00 PM 47.4183 -76.7320 132° Southeast  Level Estimated
Sun 04:30:57 PM 47.4833 -76.8667 138° Southeast 260 299 20,100  Level Montreal Center
Sun 04:31:57 PM 47.4500 -76.7667 116° Southeast 270 311 20,900 850 Climbing Montreal Center
Sun 04:32:57 PM 47.3833 -76.6833 140° Southeast 270 311 21,800 1,000 Climbing Montreal Center
Sun 04:33:57 PM 47.3333 -76.5833 126° Southeast 280 322 22,900 600 Climbing Montreal Center
Sun 04:34:57 PM 47.2833 -76.5167 138° Southeast 290 334 23,000 300 Climbing Montreal Center
Sun 04:35:57 PM 47.2333 -76.4167 126° Southeast 310 357 23,500 250 Climbing Montreal Center
Sun 04:36:57 PM 47.1667 -76.3167 134° Southeast 310 357 23,500 50 Level Montreal Center
Sun 04:37:57 PM 47.1000 -76.2167 134° Southeast 330 380 23,600 400 Climbing Montreal Center
Sun 04:38:57 PM 47.0500 -76.1167 126° Southeast 320 368 24,300 600 Climbing Montreal Center
Sun 04:39:57 PM 46.9833 -76.0167 134° Southeast 310 357 24,800 350 Climbing Montreal Center
Sun 04:40:57 PM 46.9333 -75.9167 126° Southeast 320 368 25,000 50 Climbing Montreal Center
Sun 04:41:57 PM 46.8667 -75.8167 134° Southeast 330 380 24,900  Descending Montreal Center
Sun 04:42:57 PM 46.8167 -75.7167 126° Southeast 330 380 25,000 50 Climbing Montreal Center
Sun 04:43:57 PM 46.7500 -75.6167 134° Southeast 330 380 25,000  Level Montreal Center
Sun 04:44:57 PM 46.6833 -75.5333 139° Southeast 330 380 25,000  Level Montreal Center
Sun 04:45:57 PM 46.6333 -75.4000 119° Southeast 330 380 25,000  Level Montreal Center
Sun 04:46:57 PM 46.5667 -75.3167 139° Southeast 330 380 25,000 -200 Level Montreal Center
Sun 04:47:57 PM 46.5000 -75.2167 134° Southeast 330 380 24,600 -850 Descending Montreal Center
Sun 04:48:57 PM 46.4333 -75.1167 134° Southeast 340 391 23,300 -1,300 Descending Montreal Center
Sun 04:49:57 PM 46.3833 -75.0167 126° Southeast 340 391 22,000 -1,500 Descending Montreal Center
Sun 04:50:57 PM 46.3167 -74.9167 134° Southeast 340 391 20,300 -1,650 Descending Montreal Center
Sun 04:51:57 PM 46.2333 -74.8333 145° Southeast 340 391 18,700 -1,550 Descending Montreal Center
Sun 04:52:57 PM 46.1833 -74.7000 118° Southeast 330 380 17,200 -1,400 Descending Montreal Center
Sun 04:53:57 PM 46.1167 -74.6167 139° Southeast 330 380 15,900 -1,150 Descending Montreal Center
Sun 04:54:57 PM 46.0500 -74.5167 134° Southeast 340 391 14,900 -1,050 Descending Montreal Center
Sun 04:55:57 PM 45.9833 -74.4167 134° Southeast 330 380 13,800 -1,050 Descending Montreal Center
Sun 04:56:57 PM 45.9167 -74.3500 145° Southeast 330 380 12,800 -1,300 Descending Montreal Center
Sun 04:57:57 PM 45.8500 -74.2667 139° Southeast 320 368 11,200 -1,450 Descending Montreal Center
Sun 04:58:57 PM 45.7833 -74.1833 139° Southeast 290 334 9,900 -1,350 Descending Montreal Center
Sun 04:59:57 PM 45.7333 -74.1500 155° Southeast 240 276 8,500 -900 Descending Montreal Center
Sun 05:00:57 PM 45.7167 -74.0500 103° East 230 265 8,100 -250 Descending Montreal Center
Sun 05:01:57 PM 45.6667 -73.9500 126° Southeast 240 276 8,000 -550 Descending Montreal Center
Sun 05:02:57 PM 45.6333 -73.8833 126° Southeast 230 265 7,000 -1,100 Descending Montreal Center
Sun 05:03:57 PM 45.6333 -73.7833 90° East 240 276 5,800 -1,100 Descending Montreal Center
Sun 05:04:57 PM 45.6500 -73.7167 70° East 230 265 4,800 -1,050 Descending Montreal Center
Sun 05:05:57 PM 45.6500 -73.6500 90° East 180 207 3,700 -900 Descending Montreal Center
Sun 05:06:57 PM 45.6167 -73.5667 120° Southeast 170 196 3,000 -400 Descending Montreal Center
Sun 05:07:57 PM 45.5667 -73.6000 205° Southwest 170 196 2,900 -650 Descending Montreal Center
Sun 05:08:57 PM 45.5333 -73.6500 226° Southwest 160 184 1,700 -900 Descending Montreal Center
Sun 05:09:57 PM 45.5000 -73.7000 226° Southwest 140 161 1,100 -700 Descending Montreal Center
Sun 05:10:57 PM 45.4667 -73.7167 199° South 130 150 300 -500 Descending Montreal Center
Sun 05:11:57 PM 45.4500 -73.7500 235° Southwest 30 35 100 -200 Descending Montreal Center

Login

Don't have an account? Register now (free) for customized features, flight alerts, and more!